sensor_id;sensor_type;location;lat;lon;timestamp;temperature;humidity
14517;DHT22;7344;50.864;4.362;2023-10-09T00:01:06;17.60;99.90
14517;DHT22;7344;50.864;4.362;2023-10-09T00:03:46;17.50;99.90
14517;DHT22;7344;50.864;4.362;2023-10-09T00:06:18;17.50;99.90
14517;DHT22;7344;50.864;4.362;2023-10-09T00:08:49;17.50;99.90
14517;DHT22;7344;50.864;4.362;2023-10-09T00:11:19;17.50;99.90
14517;DHT22;7344;50.864;4.362;2023-10-09T00:13:47;17.50;99.90
14517;DHT22;7344;50.864;4.362;2023-10-09T00:16:19;17.50;99.90
14517;DHT22;7344;50.864;4.362;2023-10-09T00:19:06;17.50;99.90
14517;DHT22;7344;50.864;4.362;2023-10-09T00:21:51;17.50;99.90
14517;DHT22;7344;50.864;4.362;2023-10-09T00:24:20;17.40;99.90
14517;DHT22;7344;50.864;4.362;2023-10-09T00:26:53;17.40;99.90
14517;DHT22;7344;50.864;4.362;2023-10-09T00:29:27;17.40;99.90
14517;DHT22;7344;50.864;4.362;2023-10-09T00:31:59;17.40;99.90
14517;DHT22;7344;50.864;4.362;2023-10-09T00:34:44;17.40;99.90
14517;DHT22;7344;50.864;4.362;2023-10-09T00:37:10;17.30;99.90
14517;DHT22;7344;50.864;4.362;2023-10-09T00:39:42;17.30;99.90
14517;DHT22;7344;50.864;4.362;2023-10-09T00:42:10;17.30;99.90
14517;DHT22;7344;50.864;4.362;2023-10-09T00:44:38;17.20;99.90
14517;DHT22;7344;50.864;4.362;2023-10-09T00:47:14;17.30;99.90
14517;DHT22;7344;50.864;4.362;2023-10-09T00:50:05;17.30;99.90
14517;DHT22;7344;50.864;4.362;2023-10-09T00:52:45;17.30;99.90
14517;DHT22;7344;50.864;4.362;2023-10-09T00:55:26;17.30;99.90
14517;DHT22;7344;50.864;4.362;2023-10-09T00:58:14;17.20;99.90
14517;DHT22;7344;50.864;4.362;2023-10-09T01:00:41;17.10;99.90
14517;DHT22;7344;50.864;4.362;2023-10-09T01:03:10;17.10;99.90
14517;DHT22;7344;50.864;4.362;2023-10-09T01:05:43;17.00;99.90
14517;DHT22;7344;50.864;4.362;2023-10-09T01:08:19;16.90;99.90
14517;DHT22;7344;50.864;4.362;2023-10-09T01:10:51;16.90;99.90
14517;DHT22;7344;50.864;4.362;2023-10-09T01:13:25;16.90;99.90
14517;DHT22;7344;50.864;4.362;2023-10-09T01:16:06;17.00;99.90
14517;DHT22;7344;50.864;4.362;2023-10-09T01:18:32;16.90;99.90
14517;DHT22;7344;50.864;4.362;2023-10-09T01:21:03;16.90;99.90
14517;DHT22;7344;50.864;4.362;2023-10-09T01:23:28;16.90;99.90
14517;DHT22;7344;50.864;4.362;2023-10-09T01:25:55;16.90;99.90
14517;DHT22;7344;50.864;4.362;2023-10-09T01:28:21;16.90;99.90
14517;DHT22;7344;50.864;4.362;2023-10-09T01:30:46;16.90;99.90
14517;DHT22;7344;50.864;4.362;2023-10-09T01:33:13;16.80;99.90
14517;DHT22;7344;50.864;4.362;2023-10-09T01:35:48;16.90;99.90
14517;DHT22;7344;50.864;4.362;2023-10-09T01:38:15;16.80;99.90
14517;DHT22;7344;50.864;4.362;2023-10-09T01:40:41;16.80;99.90
14517;DHT22;7344;50.864;4.362;2023-10-09T01:43:08;16.70;99.90
14517;DHT22;7344;50.864;4.362;2023-10-09T01:45:38;16.70;99.90
14517;DHT22;7344;50.864;4.362;2023-10-09T01:48:12;16.70;99.90
14517;DHT22;7344;50.864;4.362;2023-10-09T01:50:40;16.70;99.90
14517;DHT22;7344;50.864;4.362;2023-10-09T01:53:07;16.70;99.90
14517;DHT22;7344;50.864;4.362;2023-10-09T01:55:34;16.70;99.90
14517;DHT22;7344;50.864;4.362;2023-10-09T01:58:07;16.80;99.90
14517;DHT22;7344;50.864;4.362;2023-10-09T02:00:50;16.80;99.90
14517;DHT22;7344;50.864;4.362;2023-10-09T02:03:23;16.80;99.90
14517;DHT22;7344;50.864;4.362;2023-10-09T02:05:52;16.80;99.90
14517;DHT22;7344;50.864;4.362;2023-10-09T02:08:54;16.80;99.90
14517;DHT22;7344;50.864;4.362;2023-10-09T02:11:20;16.80;99.90
14517;DHT22;7344;50.864;4.362;2023-10-09T02:14:01;16.80;99.90
14517;DHT22;7344;50.864;4.362;2023-10-09T02:16:27;16.80;99.90
14517;DHT22;7344;50.864;4.362;2023-10-09T02:19:07;16.80;99.90
14517;DHT22;7344;50.864;4.362;2023-10-09T02:21:33;16.80;99.90
14517;DHT22;7344;50.864;4.362;2023-10-09T02:24:05;16.70;99.90
14517;DHT22;7344;50.864;4.362;2023-10-09T02:26:33;16.70;99.90
14517;DHT22;7344;50.864;4.362;2023-10-09T02:28:59;16.70;99.90
14517;DHT22;7344;50.864;4.362;2023-10-09T02:31:28;16.70;99.90
14517;DHT22;7344;50.864;4.362;2023-10-09T02:34:01;16.70;99.90
14517;DHT22;7344;50.864;4.362;2023-10-09T02:36:31;16.80;99.90
14517;DHT22;7344;50.864;4.362;2023-10-09T02:38:56;16.70;99.90
14517;DHT22;7344;50.864;4.362;2023-10-09T02:41:22;16.70;99.90
14517;DHT22;7344;50.864;4.362;2023-10-09T02:43:48;16.70;99.90
14517;DHT22;7344;50.864;4.362;2023-10-09T02:46:21;16.60;99.90
14517;DHT22;7344;50.864;4.362;2023-10-09T02:48:55;16.60;99.90
14517;DHT22;7344;50.864;4.362;2023-10-09T02:51:27;16.60;99.90
14517;DHT22;7344;50.864;4.362;2023-10-09T02:53:57;16.60;99.90
14517;DHT22;7344;50.864;4.362;2023-10-09T02:56:26;16.60;99.90
14517;DHT22;7344;50.864;4.362;2023-10-09T02:59:13;16.60;99.90
14517;DHT22;7344;50.864;4.362;2023-10-09T03:01:40;16.50;99.90
14517;DHT22;7344;50.864;4.362;2023-10-09T03:04:06;16.60;99.90
14517;DHT22;7344;50.864;4.362;2023-10-09T03:06:32;16.60;99.90
14517;DHT22;7344;50.864;4.362;2023-10-09T03:09:01;16.60;99.90
14517;DHT22;7344;50.864;4.362;2023-10-09T03:11:47;16.60;99.90
14517;DHT22;7344;50.864;4.362;2023-10-09T03:14:19;16.50;99.90
14517;DHT22;7344;50.864;4.362;2023-10-09T03:16:46;16.50;99.90
14517;DHT22;7344;50.864;4.362;2023-10-09T03:19:13;16.50;99.90
14517;DHT22;7344;50.864;4.362;2023-10-09T03:21:39;16.50;99.90
14517;DHT22;7344;50.864;4.362;2023-10-09T03:24:05;16.40;99.90
14517;DHT22;7344;50.864;4.362;2023-10-09T03:26:32;16.40;99.90
14517;DHT22;7344;50.864;4.362;2023-10-09T03:28:57;16.40;99.90
14517;DHT22;7344;50.864;4.362;2023-10-09T03:31:27;16.40;99.90
14517;DHT22;7344;50.864;4.362;2023-10-09T03:33:57;16.40;99.90
14517;DHT22;7344;50.864;4.362;2023-10-09T03:36:22;16.40;99.90
14517;DHT22;7344;50.864;4.362;2023-10-09T03:38:52;16.30;99.90
14517;DHT22;7344;50.864;4.362;2023-10-09T03:41:20;16.30;99.90
14517;DHT22;7344;50.864;4.362;2023-10-09T03:43:46;16.30;99.90
14517;DHT22;7344;50.864;4.362;2023-10-09T03:46:12;16.30;99.90
14517;DHT22;7344;50.864;4.362;2023-10-09T03:48:51;16.20;99.90
14517;DHT22;7344;50.864;4.362;2023-10-09T03:51:18;16.20;99.90
14517;DHT22;7344;50.864;4.362;2023-10-09T03:53:51;16.20;99.90
14517;DHT22;7344;50.864;4.362;2023-10-09T03:56:18;16.20;99.90
14517;DHT22;7344;50.864;4.362;2023-10-09T03:58:48;16.20;99.90
14517;DHT22;7344;50.864;4.362;2023-10-09T04:01:19;16.20;99.90
14517;DHT22;7344;50.864;4.362;2023-10-09T04:03:56;16.20;99.90
14517;DHT22;7344;50.864;4.362;2023-10-09T04:06:28;16.20;99.90
14517;DHT22;7344;50.864;4.362;2023-10-09T04:09:01;16.20;99.90
14517;DHT22;7344;50.864;4.362;2023-10-09T04:11:51;16.10;99.90
14517;DHT22;7344;50.864;4.362;2023-10-09T04:14:39;16.20;99.90
14517;DHT22;7344;50.864;4.362;2023-10-09T04:17:21;16.20;99.90
14517;DHT22;7344;50.864;4.362;2023-10-09T04:20:00;16.30;99.90
14517;DHT22;7344;50.864;4.362;2023-10-09T04:22:41;16.20;99.90
14517;DHT22;7344;50.864;4.362;2023-10-09T04:25:20;16.20;99.90
14517;DHT22;7344;50.864;4.362;2023-10-09T04:27:54;16.20;99.90
14517;DHT22;7344;50.864;4.362;2023-10-09T04:30:38;16.20;99.90
14517;DHT22;7344;50.864;4.362;2023-10-09T04:33:14;16.10;99.90
14517;DHT22;7344;50.864;4.362;2023-10-09T04:36:08;16.20;99.90
14517;DHT22;7344;50.864;4.362;2023-10-09T04:38:46;16.20;99.90
14517;DHT22;7344;50.864;4.362;2023-10-09T04:41:22;16.20;99.90
14517;DHT22;7344;50.864;4.362;2023-10-09T04:43:54;16.30;99.90
14517;DHT22;7344;50.864;4.362;2023-10-09T04:46:41;16.30;99.90
14517;DHT22;7344;50.864;4.362;2023-10-09T04:49:10;16.20;99.90
14517;DHT22;7344;50.864;4.362;2023-10-09T04:51:54;16.20;99.90
14517;DHT22;7344;50.864;4.362;2023-10-09T04:54:44;16.10;99.90
14517;DHT22;7344;50.864;4.362;2023-10-09T04:57:28;16.20;99.90
14517;DHT22;7344;50.864;4.362;2023-10-09T04:59:54;16.10;99.90
14517;DHT22;7344;50.864;4.362;2023-10-09T05:02:24;16.20;99.90
14517;DHT22;7344;50.864;4.362;2023-10-09T05:04:50;16.20;99.90
14517;DHT22;7344;50.864;4.362;2023-10-09T05:07:26;16.20;99.90
14517;DHT22;7344;50.864;4.362;2023-10-09T05:10:11;16.20;99.90
14517;DHT22;7344;50.864;4.362;2023-10-09T05:12:45;16.20;99.90
14517;DHT22;7344;50.864;4.362;2023-10-09T05:15:25;16.10;99.90
14517;DHT22;7344;50.864;4.362;2023-10-09T05:17:55;16.20;99.90
14517;DHT22;7344;50.864;4.362;2023-10-09T05:20:27;16.10;99.90
14517;DHT22;7344;50.864;4.362;2023-10-09T05:22:53;16.10;99.90
14517;DHT22;7344;50.864;4.362;2023-10-09T05:25:45;16.10;99.90
14517;DHT22;7344;50.864;4.362;2023-10-09T05:28:19;16.10;99.90
14517;DHT22;7344;50.864;4.362;2023-10-09T05:30:57;16.10;99.90
14517;DHT22;7344;50.864;4.362;2023-10-09T05:33:34;16.10;99.90
14517;DHT22;7344;50.864;4.362;2023-10-09T05:36:03;16.10;99.90
14517;DHT22;7344;50.864;4.362;2023-10-09T05:38:47;16.20;99.90
14517;DHT22;7344;50.864;4.362;2023-10-09T05:41:27;16.20;99.90
14517;DHT22;7344;50.864;4.362;2023-10-09T05:44:31;16.10;99.90
14517;DHT22;7344;50.864;4.362;2023-10-09T05:47:15;16.20;99.90
14517;DHT22;7344;50.864;4.362;2023-10-09T05:49:59;16.20;99.90
14517;DHT22;7344;50.864;4.362;2023-10-09T05:52:34;16.10;99.90
14517;DHT22;7344;50.864;4.362;2023-10-09T05:55:06;16.20;99.90
14517;DHT22;7344;50.864;4.362;2023-10-09T05:57:53;16.20;99.90
14517;DHT22;7344;50.864;4.362;2023-10-09T06:00:30;16.20;99.90
14517;DHT22;7344;50.864;4.362;2023-10-09T06:03:15;16.20;99.90
14517;DHT22;7344;50.864;4.362;2023-10-09T06:05:47;16.10;99.90
14517;DHT22;7344;50.864;4.362;2023-10-09T06:08:32;16.20;99.90
14517;DHT22;7344;50.864;4.362;2023-10-09T06:11:13;16.20;99.90
14517;DHT22;7344;50.864;4.362;2023-10-09T06:13:59;16.20;99.90
14517;DHT22;7344;50.864;4.362;2023-10-09T06:16:38;16.30;99.90
14517;DHT22;7344;50.864;4.362;2023-10-09T06:19:21;16.40;99.90
14517;DHT22;7344;50.864;4.362;2023-10-09T06:21:47;16.30;99.90
14517;DHT22;7344;50.864;4.362;2023-10-09T06:24:32;16.30;99.90
14517;DHT22;7344;50.864;4.362;2023-10-09T06:27:16;16.30;99.90
14517;DHT22;7344;50.864;4.362;2023-10-09T06:29:57;16.20;99.90
14517;DHT22;7344;50.864;4.362;2023-10-09T06:32:39;16.20;99.90
14517;DHT22;7344;50.864;4.362;2023-10-09T06:35:16;16.20;99.90
14517;DHT22;7344;50.864;4.362;2023-10-09T06:37:48;16.20;99.90
14517;DHT22;7344;50.864;4.362;2023-10-09T06:43:13;16.20;99.90
14517;DHT22;7344;50.864;4.362;2023-10-09T06:45:48;16.20;99.90
14517;DHT22;7344;50.864;4.362;2023-10-09T06:48:21;16.10;99.90
14517;DHT22;7344;50.864;4.362;2023-10-09T06:51:06;16.10;99.90
14517;DHT22;7344;50.864;4.362;2023-10-09T06:53:44;16.20;99.90
14517;DHT22;7344;50.864;4.362;2023-10-09T06:56:22;16.20;99.90
14517;DHT22;7344;50.864;4.362;2023-10-09T06:59:00;16.20;99.90
14517;DHT22;7344;50.864;4.362;2023-10-09T07:01:47;16.20;99.90
14517;DHT22;7344;50.864;4.362;2023-10-09T07:04:33;16.40;99.90
14517;DHT22;7344;50.864;4.362;2023-10-09T07:07:01;16.50;99.90
14517;DHT22;7344;50.864;4.362;2023-10-09T07:09:32;16.60;99.90
14517;DHT22;7344;50.864;4.362;2023-10-09T07:12:16;16.70;99.90
14517;DHT22;7344;50.864;4.362;2023-10-09T07:14:52;16.80;99.90
14517;DHT22;7344;50.864;4.362;2023-10-09T07:17:27;17.00;99.90
14517;DHT22;7344;50.864;4.362;2023-10-09T07:19:58;17.10;99.90
14517;DHT22;7344;50.864;4.362;2023-10-09T07:22:41;17.30;99.90
14517;DHT22;7344;50.864;4.362;2023-10-09T07:25:22;17.30;99.90
14517;DHT22;7344;50.864;4.362;2023-10-09T07:27:57;17.50;99.90
14517;DHT22;7344;50.864;4.362;2023-10-09T07:30:25;17.50;99.90
14517;DHT22;7344;50.864;4.362;2023-10-09T07:33:02;17.60;99.90
14517;DHT22;7344;50.864;4.362;2023-10-09T07:35:32;17.60;99.90
14517;DHT22;7344;50.864;4.362;2023-10-09T07:38:22;17.50;99.90
14517;DHT22;7344;50.864;4.362;2023-10-09T07:40:51;17.70;99.90
14517;DHT22;7344;50.864;4.362;2023-10-09T07:43:33;17.80;99.90
14517;DHT22;7344;50.864;4.362;2023-10-09T07:46:06;17.90;99.90
14517;DHT22;7344;50.864;4.362;2023-10-09T07:48:50;18.30;99.90
14517;DHT22;7344;50.864;4.362;2023-10-09T07:51:19;19.20;99.90
14517;DHT22;7344;50.864;4.362;2023-10-09T07:53:51;20.10;99.90
14517;DHT22;7344;50.864;4.362;2023-10-09T07:56:23;21.60;99.90
14517;DHT22;7344;50.864;4.362;2023-10-09T07:58:49;22.30;99.90
14517;DHT22;7344;50.864;4.362;2023-10-09T08:01:15;22.80;99.90
14517;DHT22;7344;50.864;4.362;2023-10-09T08:03:50;23.10;99.90
14517;DHT22;7344;50.864;4.362;2023-10-09T08:06:37;22.40;1.00
14517;DHT22;7344;50.864;4.362;2023-10-09T08:09:09;22.30;99.90
14517;DHT22;7344;50.864;4.362;2023-10-09T08:11:38;22.00;99.90
14517;DHT22;7344;50.864;4.362;2023-10-09T08:14:22;21.30;99.90
14517;DHT22;7344;50.864;4.362;2023-10-09T08:17:00;20.50;99.90
14517;DHT22;7344;50.864;4.362;2023-10-09T08:19:46;19.70;99.90
14517;DHT22;7344;50.864;4.362;2023-10-09T08:24:48;19.30;99.90
14517;DHT22;7344;50.864;4.362;2023-10-09T08:27:24;19.30;99.90
14517;DHT22;7344;50.864;4.362;2023-10-09T08:30:02;19.50;99.90
14517;DHT22;7344;50.864;4.362;2023-10-09T08:32:47;19.40;99.90
14517;DHT22;7344;50.864;4.362;2023-10-09T08:35:35;19.60;99.90
14517;DHT22;7344;50.864;4.362;2023-10-09T08:38:15;19.60;99.90
14517;DHT22;7344;50.864;4.362;2023-10-09T08:40:49;20.00;99.90
14517;DHT22;7344;50.864;4.362;2023-10-09T08:43:20;20.40;99.90
14517;DHT22;7344;50.864;4.362;2023-10-09T08:45:52;20.30;99.90
14517;DHT22;7344;50.864;4.362;2023-10-09T08:48:19;20.50;99.90
14517;DHT22;7344;50.864;4.362;2023-10-09T08:50:48;20.70;99.90
14517;DHT22;7344;50.864;4.362;2023-10-09T08:53:20;20.60;99.90
14517;DHT22;7344;50.864;4.362;2023-10-09T08:55:47;20.50;99.90
14517;DHT22;7344;50.864;4.362;2023-10-09T08:58:15;20.20;99.90
14517;DHT22;7344;50.864;4.362;2023-10-09T09:00:44;20.00;99.90
14517;DHT22;7344;50.864;4.362;2023-10-09T09:03:19;19.70;99.90
14517;DHT22;7344;50.864;4.362;2023-10-09T09:06:01;19.80;99.90
14517;DHT22;7344;50.864;4.362;2023-10-09T09:08:28;20.30;99.90
14517;DHT22;7344;50.864;4.362;2023-10-09T09:11:11;20.50;99.90
14517;DHT22;7344;50.864;4.362;2023-10-09T09:13:42;20.50;99.90
14517;DHT22;7344;50.864;4.362;2023-10-09T09:16:18;20.40;99.90
14517;DHT22;7344;50.864;4.362;2023-10-09T09:18:51;20.50;99.90
14517;DHT22;7344;50.864;4.362;2023-10-09T09:21:18;20.70;99.90
14517;DHT22;7344;50.864;4.362;2023-10-09T09:24:00;20.60;99.90
14517;DHT22;7344;50.864;4.362;2023-10-09T09:26:41;20.80;99.90
14517;DHT22;7344;50.864;4.362;2023-10-09T09:32:02;21.30;99.90
14517;DHT22;7344;50.864;4.362;2023-10-09T09:34:52;21.00;99.90
14517;DHT22;7344;50.864;4.362;2023-10-09T09:37:24;21.20;99.90
14517;DHT22;7344;50.864;4.362;2023-10-09T09:39:58;21.30;99.90
14517;DHT22;7344;50.864;4.362;2023-10-09T09:42:29;21.10;99.90
14517;DHT22;7344;50.864;4.362;2023-10-09T09:45:00;21.20;99.90
14517;DHT22;7344;50.864;4.362;2023-10-09T09:47:26;21.10;99.90
14517;DHT22;7344;50.864;4.362;2023-10-09T09:49:56;21.10;99.90
14517;DHT22;7344;50.864;4.362;2023-10-09T09:52:37;21.30;99.90
14517;DHT22;7344;50.864;4.362;2023-10-09T09:55:08;21.80;99.90
14517;DHT22;7344;50.864;4.362;2023-10-09T09:57:44;22.20;99.90
14517;DHT22;7344;50.864;4.362;2023-10-09T10:00:12;22.50;99.90
14517;DHT22;7344;50.864;4.362;2023-10-09T10:03:06;23.00;99.90
14517;DHT22;7344;50.864;4.362;2023-10-09T10:05:34;22.40;99.90
14517;DHT22;7344;50.864;4.362;2023-10-09T10:08:00;22.20;99.90
14517;DHT22;7344;50.864;4.362;2023-10-09T10:10:40;22.20;99.90
14517;DHT22;7344;50.864;4.362;2023-10-09T10:16:13;22.00;99.90
14517;DHT22;7344;50.864;4.362;2023-10-09T10:19:06;22.10;99.90
14517;DHT22;7344;50.864;4.362;2023-10-09T10:21:44;21.60;99.90
14517;DHT22;7344;50.864;4.362;2023-10-09T10:35:21;22.50;99.90
14517;DHT22;7344;50.864;4.362;2023-10-09T10:37:58;22.60;99.90
14517;DHT22;7344;50.864;4.362;2023-10-09T10:40:33;22.60;99.90
14517;DHT22;7344;50.864;4.362;2023-10-09T10:43:18;22.60;99.90
14517;DHT22;7344;50.864;4.362;2023-10-09T10:46:20;22.20;99.90
14517;DHT22;7344;50.864;4.362;2023-10-09T10:48:53;22.40;99.90
14517;DHT22;7344;50.864;4.362;2023-10-09T10:51:26;22.70;99.90
14517;DHT22;7344;50.864;4.362;2023-10-09T10:54:03;22.10;99.90
14517;DHT22;7344;50.864;4.362;2023-10-09T10:56:47;22.10;99.90
14517;DHT22;7344;50.864;4.362;2023-10-09T10:59:14;22.20;99.90
14517;DHT22;7344;50.864;4.362;2023-10-09T11:01:48;22.10;99.90
14517;DHT22;7344;50.864;4.362;2023-10-09T11:04:24;22.50;99.90
14517;DHT22;7344;50.864;4.362;2023-10-09T11:06:59;22.70;99.90
14517;DHT22;7344;50.864;4.362;2023-10-09T11:09:52;22.80;99.90
14517;DHT22;7344;50.864;4.362;2023-10-09T11:15:15;22.80;99.90
14517;DHT22;7344;50.864;4.362;2023-10-09T11:18:06;23.10;99.90
14517;DHT22;7344;50.864;4.362;2023-10-09T11:20:43;23.20;99.90
14517;DHT22;7344;50.864;4.362;2023-10-09T11:23:22;23.10;99.90
14517;DHT22;7344;50.864;4.362;2023-10-09T11:26:09;23.20;99.90
14517;DHT22;7344;50.864;4.362;2023-10-09T11:29:05;23.30;99.90
14517;DHT22;7344;50.864;4.362;2023-10-09T11:32:21;23.90;99.90
14517;DHT22;7344;50.864;4.362;2023-10-09T11:34:28;23.80;99.90
14517;DHT22;7344;50.864;4.362;2023-10-09T11:37:12;23.40;99.90
14517;DHT22;7344;50.864;4.362;2023-10-09T11:39:39;23.50;99.90
14517;DHT22;7344;50.864;4.362;2023-10-09T11:42:22;23.50;99.90
14517;DHT22;7344;50.864;4.362;2023-10-09T11:45:06;23.50;99.90
14517;DHT22;7344;50.864;4.362;2023-10-09T11:47:50;23.80;99.90
14517;DHT22;7344;50.864;4.362;2023-10-09T11:50:45;24.20;99.90
14517;DHT22;7344;50.864;4.362;2023-10-09T11:53:17;24.50;99.90
14517;DHT22;7344;50.864;4.362;2023-10-09T11:55:59;24.50;99.90
14517;DHT22;7344;50.864;4.362;2023-10-09T11:58:25;24.50;99.90
14517;DHT22;7344;50.864;4.362;2023-10-09T12:00:55;24.20;99.90
14517;DHT22;7344;50.864;4.362;2023-10-09T12:03:31;24.40;99.90
14517;DHT22;7344;50.864;4.362;2023-10-09T12:06:02;24.60;99.90
14517;DHT22;7344;50.864;4.362;2023-10-09T12:08:34;24.70;99.80
14517;DHT22;7344;50.864;4.362;2023-10-09T12:11:01;25.00;99.80
14517;DHT22;7344;50.864;4.362;2023-10-09T12:13:33;24.90;99.60
14517;DHT22;7344;50.864;4.362;2023-10-09T12:15:59;25.10;99.30
14517;DHT22;7344;50.864;4.362;2023-10-09T12:18:25;25.20;98.90
14517;DHT22;7344;50.864;4.362;2023-10-09T12:20:51;25.00;98.70
14517;DHT22;7344;50.864;4.362;2023-10-09T12:23:22;24.90;98.80
14517;DHT22;7344;50.864;4.362;2023-10-09T12:25:51;24.90;98.90
14517;DHT22;7344;50.864;4.362;2023-10-09T12:28:22;24.70;99.10
14517;DHT22;7344;50.864;4.362;2023-10-09T12:30:49;24.70;99.20
14517;DHT22;7344;50.864;4.362;2023-10-09T12:33:19;24.30;99.00
14517;DHT22;7344;50.864;4.362;2023-10-09T12:35:45;24.20;99.60
14517;DHT22;7344;50.864;4.362;2023-10-09T12:38:13;24.30;99.40
14517;DHT22;7344;50.864;4.362;2023-10-09T12:40:39;24.40;99.30
14517;DHT22;7344;50.864;4.362;2023-10-09T12:43:07;24.50;99.50
14517;DHT22;7344;50.864;4.362;2023-10-09T12:45:43;24.60;99.40
14517;DHT22;7344;50.864;4.362;2023-10-09T12:48:10;24.90;98.90
14517;DHT22;7344;50.864;4.362;2023-10-09T12:50:36;24.80;98.90
14517;DHT22;7344;50.864;4.362;2023-10-09T12:53:09;24.50;99.30
14517;DHT22;7344;50.864;4.362;2023-10-09T12:55:37;24.40;99.60
14517;DHT22;7344;50.864;4.362;2023-10-09T12:58:07;24.40;99.60
14517;DHT22;7344;50.864;4.362;2023-10-09T13:00:37;24.40;99.80
14517;DHT22;7344;50.864;4.362;2023-10-09T13:03:06;24.40;99.70
14517;DHT22;7344;50.864;4.362;2023-10-09T13:05:53;24.20;99.90
14517;DHT22;7344;50.864;4.362;2023-10-09T13:08:27;23.70;99.90
14517;DHT22;7344;50.864;4.362;2023-10-09T13:11:01;23.80;99.90
14517;DHT22;7344;50.864;4.362;2023-10-09T13:13:29;23.80;99.90
14517;DHT22;7344;50.864;4.362;2023-10-09T13:16:17;23.60;99.90
14517;DHT22;7344;50.864;4.362;2023-10-09T13:18:50;23.70;99.90
14517;DHT22;7344;50.864;4.362;2023-10-09T13:21:20;24.10;99.90
14517;DHT22;7344;50.864;4.362;2023-10-09T13:23:47;24.00;99.90
14517;DHT22;7344;50.864;4.362;2023-10-09T13:26:21;23.90;99.90
14517;DHT22;7344;50.864;4.362;2023-10-09T13:28:58;23.90;99.90
14517;DHT22;7344;50.864;4.362;2023-10-09T13:31:25;23.90;99.90
14517;DHT22;7344;50.864;4.362;2023-10-09T13:33:55;23.90;99.90
14517;DHT22;7344;50.864;4.362;2023-10-09T13:36:25;23.60;99.90
14517;DHT22;7344;50.864;4.362;2023-10-09T13:38:58;23.80;99.90
14517;DHT22;7344;50.864;4.362;2023-10-09T13:41:28;23.90;99.90
14517;DHT22;7344;50.864;4.362;2023-10-09T13:43:56;24.10;99.90
14517;DHT22;7344;50.864;4.362;2023-10-09T13:46:23;23.90;99.90
14517;DHT22;7344;50.864;4.362;2023-10-09T13:48:49;23.70;99.90
14517;DHT22;7344;50.864;4.362;2023-10-09T13:51:15;23.70;99.90
14517;DHT22;7344;50.864;4.362;2023-10-09T13:53:47;23.80;99.90
14517;DHT22;7344;50.864;4.362;2023-10-09T13:56:17;23.90;99.90
14517;DHT22;7344;50.864;4.362;2023-10-09T13:58:48;23.70;99.90
14517;DHT22;7344;50.864;4.362;2023-10-09T14:01:15;23.80;99.90
14517;DHT22;7344;50.864;4.362;2023-10-09T14:04:01;23.90;99.90
14517;DHT22;7344;50.864;4.362;2023-10-09T14:06:27;23.90;99.90
14517;DHT22;7344;50.864;4.362;2023-10-09T14:08:57;24.10;99.90
14517;DHT22;7344;50.864;4.362;2023-10-09T14:11:23;24.00;99.90
14517;DHT22;7344;50.864;4.362;2023-10-09T14:13:50;24.00;99.90
14517;DHT22;7344;50.864;4.362;2023-10-09T14:16:16;24.10;99.90
14517;DHT22;7344;50.864;4.362;2023-10-09T14:18:56;23.90;99.90
14517;DHT22;7344;50.864;4.362;2023-10-09T14:21:27;24.10;99.90
14517;DHT22;7344;50.864;4.362;2023-10-09T14:23:56;23.90;99.90
14517;DHT22;7344;50.864;4.362;2023-10-09T14:26:26;23.70;99.90
14517;DHT22;7344;50.864;4.362;2023-10-09T14:28:53;24.10;99.90
14517;DHT22;7344;50.864;4.362;2023-10-09T14:31:22;24.30;99.90
14517;DHT22;7344;50.864;4.362;2023-10-09T14:33:55;24.30;99.90
14517;DHT22;7344;50.864;4.362;2023-10-09T14:36:21;24.10;99.90
14517;DHT22;7344;50.864;4.362;2023-10-09T14:38:51;23.80;99.90
14517;DHT22;7344;50.864;4.362;2023-10-09T14:41:21;23.70;99.90
14517;DHT22;7344;50.864;4.362;2023-10-09T14:43:50;23.70;99.90
14517;DHT22;7344;50.864;4.362;2023-10-09T14:46:16;23.50;99.90
14517;DHT22;7344;50.864;4.362;2023-10-09T14:48:45;23.40;99.90
14517;DHT22;7344;50.864;4.362;2023-10-09T14:51:11;23.50;99.90
14517;DHT22;7344;50.864;4.362;2023-10-09T14:53:39;23.40;99.90
14517;DHT22;7344;50.864;4.362;2023-10-09T14:56:06;23.40;99.90
14517;DHT22;7344;50.864;4.362;2023-10-09T14:58:35;23.40;99.90
14517;DHT22;7344;50.864;4.362;2023-10-09T15:01:10;23.50;99.90
14517;DHT22;7344;50.864;4.362;2023-10-09T15:03:36;23.00;99.90
14517;DHT22;7344;50.864;4.362;2023-10-09T15:06:05;22.90;99.90
14517;DHT22;7344;50.864;4.362;2023-10-09T15:08:36;22.90;99.90
14517;DHT22;7344;50.864;4.362;2023-10-09T15:11:03;23.10;99.90
14517;DHT22;7344;50.864;4.362;2023-10-09T15:13:28;23.10;99.90
14517;DHT22;7344;50.864;4.362;2023-10-09T15:15:56;23.10;99.90
14517;DHT22;7344;50.864;4.362;2023-10-09T15:18:22;22.90;99.90
14517;DHT22;7344;50.864;4.362;2023-10-09T15:20:48;23.00;99.90
14517;DHT22;7344;50.864;4.362;2023-10-09T15:23:14;22.90;99.90
14517;DHT22;7344;50.864;4.362;2023-10-09T15:25:41;22.90;99.90
14517;DHT22;7344;50.864;4.362;2023-10-09T15:28:11;22.70;99.90
14517;DHT22;7344;50.864;4.362;2023-10-09T15:30:37;22.60;99.90
14517;DHT22;7344;50.864;4.362;2023-10-09T15:33:06;22.60;99.90
14517;DHT22;7344;50.864;4.362;2023-10-09T15:35:33;22.50;99.90
14517;DHT22;7344;50.864;4.362;2023-10-09T15:38:03;22.50;99.90
14517;DHT22;7344;50.864;4.362;2023-10-09T15:40:32;22.50;99.90
14517;DHT22;7344;50.864;4.362;2023-10-09T15:43:02;22.40;99.90
14517;DHT22;7344;50.864;4.362;2023-10-09T15:45:30;22.50;99.90
14517;DHT22;7344;50.864;4.362;2023-10-09T15:47:57;22.50;99.90
14517;DHT22;7344;50.864;4.362;2023-10-09T15:50:24;22.40;99.90
14517;DHT22;7344;50.864;4.362;2023-10-09T15:52:54;22.30;99.90
14517;DHT22;7344;50.864;4.362;2023-10-09T15:55:21;22.30;99.90
14517;DHT22;7344;50.864;4.362;2023-10-09T15:57:50;22.40;99.90
14517;DHT22;7344;50.864;4.362;2023-10-09T16:00:22;22.20;99.90
14517;DHT22;7344;50.864;4.362;2023-10-09T16:02:54;22.10;99.90
14517;DHT22;7344;50.864;4.362;2023-10-09T16:05:20;22.00;99.90
14517;DHT22;7344;50.864;4.362;2023-10-09T16:07:51;22.00;99.90
14517;DHT22;7344;50.864;4.362;2023-10-09T16:10:19;21.90;99.90
14517;DHT22;7344;50.864;4.362;2023-10-09T16:12:45;21.80;99.90
14517;DHT22;7344;50.864;4.362;2023-10-09T16:15:12;21.80;99.90
14517;DHT22;7344;50.864;4.362;2023-10-09T16:17:40;21.80;99.90
14517;DHT22;7344;50.864;4.362;2023-10-09T16:20:08;21.60;99.90
14517;DHT22;7344;50.864;4.362;2023-10-09T16:22:42;21.50;99.90
14517;DHT22;7344;50.864;4.362;2023-10-09T16:25:11;21.40;99.90
14517;DHT22;7344;50.864;4.362;2023-10-09T16:27:38;21.30;99.90
14517;DHT22;7344;50.864;4.362;2023-10-09T16:30:06;21.30;99.90
14517;DHT22;7344;50.864;4.362;2023-10-09T16:32:38;21.20;99.90
14517;DHT22;7344;50.864;4.362;2023-10-09T16:35:04;21.20;99.90
14517;DHT22;7344;50.864;4.362;2023-10-09T16:37:30;21.10;99.90
14517;DHT22;7344;50.864;4.362;2023-10-09T16:39:59;21.00;99.90
14517;DHT22;7344;50.864;4.362;2023-10-09T16:42:31;21.00;99.90
14517;DHT22;7344;50.864;4.362;2023-10-09T16:45:02;21.00;99.90
14517;DHT22;7344;50.864;4.362;2023-10-09T16:47:27;21.00;99.90
14517;DHT22;7344;50.864;4.362;2023-10-09T16:49:56;20.90;99.90